Beaumont, Canada
Current Conditions -  °F | °C
As of 8:00 PM on Thursday 20 Nov 2014 (Local Time) from CYQX Reporting Station
Broken Clouds Broken Clouds  
Wind Chill: 22°   Ceiling: 6500
Heat Index: 30°   Visibility: 20mi
Dew Point: 19°   Wind: 9mph
Humidity: 64%   Direction: 170°S
Pressure: 30.02"   Gusts: NA
Location:  49.6°N, 55.68°W
Report Text: CYQX 202300Z 17008KT 20SM FEW047 BKN065 BKN250 M01/M07 A3002 RMK NS2SC4CI1 SLP176
Loading
Personal Weather Stations






























Interactive Weather Map New forecast layout! Learn more

10-Day Weather Forecast

Advertisements
Track Severe Weather on mobile